createdAt,value
2022-12-13T00:00:46.775Z,6.53
2022-12-13T00:03:13.342Z,3.80
2022-12-13T00:05:44.658Z,7.10
2022-12-13T00:08:11.393Z,6.10
2022-12-13T00:10:38.050Z,6.47
2022-12-13T00:13:04.739Z,6.38
2022-12-13T00:15:31.468Z,6.35
2022-12-13T00:17:58.126Z,6.45
2022-12-13T00:20:24.736Z,6.15
2022-12-13T00:22:52.628Z,6.75
2022-12-13T00:25:21.487Z,5.90
2022-12-13T00:27:48.166Z,6.63
2022-12-13T00:30:14.798Z,5.50
2022-12-13T00:32:41.444Z,6.85
2022-12-13T00:35:08.422Z,6.32
2022-12-13T00:37:35.032Z,6.47
2022-12-13T00:40:01.677Z,6.60
2022-12-13T00:42:28.240Z,6.57
2022-12-13T00:44:54.822Z,6.05
2022-12-13T00:47:26.639Z,7.55
2022-12-13T00:49:53.217Z,6.78
2022-12-13T00:52:20.313Z,6.28
2022-12-13T00:54:46.905Z,7.18
2022-12-13T00:57:13.594Z,6.55
2022-12-13T00:59:40.187Z,6.60
2022-12-13T01:02:06.748Z,5.55
2022-12-13T01:04:33.332Z,5.22
2022-12-13T01:07:00.178Z,7.22
2022-12-13T01:09:29.771Z,7.22
2022-12-13T01:12:01.093Z,6.53
2022-12-13T01:14:29.802Z,6.70
2022-12-13T01:16:57.827Z,6.30
2022-12-13T01:19:26.173Z,6.68
2022-12-13T01:22:01.293Z,6.55
2022-12-13T01:24:29.129Z,5.28
2022-12-13T01:26:57.216Z,6.63
2022-12-13T01:29:26.096Z,6.55
2022-12-13T01:31:53.611Z,7.43
2022-12-13T01:34:26.498Z,5.40
2022-12-13T01:36:58.188Z,5.95
2022-12-13T01:39:27.054Z,6.22
2022-12-13T01:42:00.160Z,6.65
2022-12-13T01:45:04.096Z,5.88
2022-12-13T01:47:42.325Z,6.80
2022-12-13T01:50:13.810Z,5.32
2022-12-13T01:52:41.886Z,6.65
2022-12-13T01:55:09.597Z,6.10
2022-12-13T01:57:45.398Z,5.93
2022-12-13T02:05:09.904Z,5.90
2022-12-13T02:07:38.394Z,6.43
2022-12-13T02:10:07.124Z,7.18
2022-12-13T02:12:37.387Z,5.75
2022-12-13T02:15:11.979Z,6.45
2022-12-13T02:17:57.473Z,7.10
2022-12-13T02:20:48.664Z,6.15
2022-12-13T02:23:43.081Z,5.43
2022-12-13T02:26:28.168Z,5.57
2022-12-13T02:29:13.055Z,6.43
2022-12-13T02:32:33.015Z,5.63
2022-12-13T02:35:05.149Z,5.15
2022-12-13T02:37:34.885Z,5.78
2022-12-13T02:40:11.092Z,5.90
2022-12-13T02:42:48.141Z,5.32
2022-12-13T02:45:24.905Z,5.68
2022-12-13T02:47:54.984Z,5.75
2022-12-13T02:50:22.386Z,5.60
2022-12-13T02:52:50.111Z,5.65
2022-12-13T02:55:17.430Z,5.65
2022-12-13T02:57:46.084Z,6.28
2022-12-13T03:00:14.410Z,5.88
2022-12-13T03:03:13.408Z,5.55
2022-12-13T03:06:14.446Z,5.85
2022-12-13T03:09:18.336Z,5.38
2022-12-13T03:12:19.160Z,6.93
2022-12-13T03:14:56.651Z,6.80
2022-12-13T03:17:27.921Z,6.50
2022-12-13T03:19:56.484Z,6.47
2022-12-13T03:22:24.295Z,5.93
2022-12-13T03:24:52.225Z,6.57
2022-12-13T03:27:18.998Z,6.95
2022-12-13T03:29:45.553Z,6.13
2022-12-13T03:32:12.143Z,6.18
2022-12-13T03:34:44.233Z,7.00
2022-12-13T03:37:12.944Z,6.15
2022-12-13T03:39:39.754Z,6.40
2022-12-13T03:42:06.571Z,7.15
2022-12-13T03:44:33.158Z,5.97
2022-12-13T03:47:00.595Z,7.50
2022-12-13T03:49:27.558Z,6.93
2022-12-13T03:52:02.143Z,6.80
2022-12-13T03:54:28.717Z,7.93
2022-12-13T03:56:55.369Z,6.50
2022-12-13T03:59:22.002Z,6.88
2022-12-13T04:01:48.744Z,7.10
2022-12-13T04:04:15.365Z,7.43
2022-12-13T04:06:41.962Z,7.10
2022-12-13T04:09:08.565Z,7.07
2022-12-13T04:11:53.470Z,7.75
2022-12-13T04:14:22.237Z,7.57
2022-12-13T04:16:50.784Z,7.63
2022-12-13T04:19:23.099Z,7.07
2022-12-13T04:21:50.884Z,7.97
2022-12-13T04:24:17.678Z,8.65
2022-12-13T04:26:44.241Z,6.90
2022-12-13T04:29:10.969Z,7.82
2022-12-13T04:31:37.595Z,8.52
2022-12-13T04:34:04.261Z,6.75
2022-12-13T04:36:32.730Z,6.88
2022-12-13T04:39:03.890Z,7.60
2022-12-13T04:41:50.877Z,7.85
2022-12-13T04:44:27.347Z,7.72
2022-12-13T04:46:55.866Z,6.97
2022-12-13T04:49:28.036Z,7.13
2022-12-13T04:52:00.431Z,8.07
2022-12-13T04:54:27.949Z,7.50
2022-12-13T04:57:03.666Z,7.63
2022-12-13T04:59:30.366Z,6.90
2022-12-13T05:01:57.027Z,7.88
2022-12-13T05:04:28.955Z,7.85
2022-12-13T05:06:58.897Z,7.50
2022-12-13T05:09:25.514Z,6.95
2022-12-13T05:11:52.096Z,7.60
2022-12-13T05:14:30.829Z,6.57
2022-12-13T05:16:57.700Z,9.65
2022-12-13T05:19:31.063Z,7.72
2022-12-13T05:22:01.550Z,7.15
2022-12-13T05:24:29.092Z,7.97
2022-12-13T05:26:55.719Z,7.68
2022-12-13T05:29:22.312Z,7.65
2022-12-13T05:31:48.974Z,7.25
2022-12-13T05:34:15.621Z,6.85
2022-12-13T05:36:42.177Z,7.03
2022-12-13T05:39:28.069Z,8.52
2022-12-13T05:44:28.899Z,7.68
2022-12-13T05:46:55.431Z,8.23
2022-12-13T05:49:22.046Z,8.30
2022-12-13T05:51:48.636Z,8.93
2022-12-13T05:54:15.433Z,7.72
2022-12-13T05:56:42.069Z,8.57
2022-12-13T05:59:08.745Z,8.15
2022-12-13T06:01:35.354Z,9.48
2022-12-13T06:04:01.935Z,8.55
2022-12-13T06:06:28.904Z,8.98
2022-12-13T06:08:55.505Z,9.00
2022-12-13T06:11:31.963Z,10.15
2022-12-13T06:14:00.914Z,9.80
2022-12-13T06:16:28.333Z,8.82
2022-12-13T06:19:03.243Z,9.85
2022-12-13T06:21:43.805Z,11.18
2022-12-13T06:24:13.207Z,10.45
2022-12-13T06:26:39.780Z,9.02
2022-12-13T06:29:06.502Z,9.75
2022-12-13T06:31:33.125Z,7.95
2022-12-13T06:34:14.835Z,9.80
2022-12-13T06:36:42.619Z,9.30
2022-12-13T06:39:09.336Z,8.95
2022-12-13T06:41:37.039Z,7.90
2022-12-13T06:44:03.907Z,8.35
2022-12-13T06:46:30.508Z,7.00
2022-12-13T06:48:57.110Z,8.73
2022-12-13T06:51:32.858Z,6.80
2022-12-13T06:54:01.639Z,6.82
2022-12-13T06:56:28.928Z,6.60
2022-12-13T06:59:02.051Z,6.97
2022-12-13T07:01:37.126Z,7.07
2022-12-13T07:04:29.578Z,7.93
2022-12-13T07:06:52.880Z,8.45
2022-12-13T07:09:19.567Z,7.65
2022-12-13T07:11:51.735Z,8.02
2022-12-13T07:14:19.189Z,8.38
2022-12-13T07:16:45.807Z,8.30
2022-12-13T07:19:13.468Z,8.20
2022-12-13T07:21:49.964Z,7.45
2022-12-13T07:24:16.562Z,8.00
2022-12-13T07:26:43.122Z,7.82
2022-12-13T07:29:09.751Z,8.52
2022-12-13T07:31:39.230Z,8.20
2022-12-13T07:34:05.957Z,8.77
2022-12-13T07:36:32.631Z,9.20
2022-12-13T07:38:59.500Z,11.15
2022-12-13T07:41:27.305Z,9.45
2022-12-13T07:43:55.811Z,9.75
2022-12-13T07:46:32.758Z,12.02
2022-12-13T07:49:05.555Z,11.07
2022-12-13T07:51:35.459Z,9.75
2022-12-13T07:54:06.972Z,11.80
2022-12-13T07:56:34.863Z,10.18
2022-12-13T07:59:01.691Z,11.32
2022-12-13T08:01:29.289Z,12.73
2022-12-13T08:03:56.493Z,9.70
2022-12-13T08:06:23.097Z,12.60
2022-12-13T08:08:51.332Z,11.40
2022-12-13T08:11:18.982Z,12.10
2022-12-13T08:13:45.614Z,10.95
2022-12-13T08:16:28.378Z,10.02
2022-12-13T08:19:01.011Z,9.63
2022-12-13T08:21:53.263Z,10.10
2022-12-13T08:24:21.910Z,8.77
2022-12-13T08:26:48.544Z,8.70
2022-12-13T08:29:22.347Z,9.55
2022-12-13T08:31:58.842Z,10.43
2022-12-13T08:34:28.098Z,10.48
2022-12-13T08:37:01.187Z,9.85
2022-12-13T08:39:30.629Z,9.75
2022-12-13T08:42:16.075Z,9.60
2022-12-13T08:44:52.979Z,8.05
2022-12-13T08:47:23.461Z,8.93
2022-12-13T08:50:03.172Z,7.82
2022-12-13T08:52:32.260Z,7.03
2022-12-13T08:55:07.918Z,8.23
2022-12-13T08:57:36.600Z,7.10
2022-12-13T09:00:09.125Z,7.53
2022-12-13T09:02:38.289Z,6.57
2022-12-13T09:05:07.450Z,6.65
2022-12-13T09:07:36.329Z,7.07
2022-12-13T09:10:25.399Z,7.43
2022-12-13T09:12:51.288Z,8.23
2022-12-13T09:15:22.339Z,6.60
2022-12-13T09:17:52.123Z,6.35
2022-12-13T09:20:28.841Z,8.27
2022-12-13T09:23:02.040Z,7.47
2022-12-13T09:25:37.315Z,8.15
2022-12-13T09:28:06.997Z,7.37
2022-12-13T09:30:34.089Z,8.18
2022-12-13T09:33:18.300Z,6.38
2022-12-13T09:38:13.891Z,7.05
2022-12-13T09:40:42.862Z,6.68
2022-12-13T09:43:22.635Z,7.40
2022-12-13T09:46:04.210Z,6.32
2022-12-13T09:48:41.064Z,6.82
2022-12-13T09:51:17.145Z,6.78
2022-12-13T09:53:55.945Z,6.75
2022-12-13T09:56:24.465Z,7.03
2022-12-13T09:58:53.912Z,5.03
2022-12-13T10:01:22.192Z,6.68
2022-12-13T10:03:53.307Z,6.07
2022-12-13T10:06:23.667Z,6.25
2022-12-13T10:08:57.775Z,6.43
2022-12-13T10:11:31.278Z,6.38
2022-12-13T10:14:24.971Z,7.18
2022-12-13T10:16:54.749Z,7.32
2022-12-13T10:19:34.957Z,7.65
2022-12-13T10:22:04.925Z,7.18
2022-12-13T10:24:50.799Z,8.52
2022-12-13T10:27:27.525Z,7.78
2022-12-13T10:30:08.416Z,6.38
2022-12-13T10:32:58.069Z,6.93
2022-12-13T10:35:30.542Z,7.13
2022-12-13T10:38:00.287Z,6.72
2022-12-13T10:40:34.452Z,6.22
2022-12-13T10:43:13.019Z,6.07
2022-12-13T10:45:40.849Z,6.53
2022-12-13T10:48:19.551Z,6.50
2022-12-13T10:50:57.335Z,5.72
2022-12-13T10:53:29.237Z,6.50
2022-12-13T10:55:56.905Z,6.28
2022-12-13T10:58:44.290Z,6.03
2022-12-13T11:01:31.169Z,6.18
2022-12-13T11:04:06.066Z,5.70
2022-12-13T11:06:44.839Z,5.93
2022-12-13T11:09:22.773Z,6.15
2022-12-13T11:11:58.216Z,6.32
2022-12-13T11:14:31.792Z,6.00
2022-12-13T11:17:05.709Z,4.65
2022-12-13T11:19:41.006Z,5.95
2022-12-13T11:22:09.680Z,5.45
2022-12-13T11:24:40.909Z,6.47
2022-12-13T11:27:36.418Z,6.05
2022-12-13T11:30:11.708Z,5.70
2022-12-13T11:33:10.198Z,5.83
2022-12-13T11:36:02.389Z,5.00
2022-12-13T11:38:34.461Z,5.40
2022-12-13T11:41:32.218Z,5.10
2022-12-13T11:44:23.041Z,6.32
2022-12-13T11:46:56.015Z,5.18
2022-12-13T11:49:44.411Z,5.57
2022-12-13T11:52:21.594Z,5.80
2022-12-13T11:54:56.711Z,5.20
2022-12-13T11:57:49.536Z,5.45
2022-12-13T12:00:33.711Z,5.90
2022-12-13T12:03:31.800Z,5.40
2022-12-13T12:08:50.990Z,5.97
2022-12-13T12:11:26.135Z,5.68
2022-12-13T12:14:33.299Z,5.32
2022-12-13T12:17:00.370Z,5.03
2022-12-13T12:19:35.019Z,5.28
2022-12-13T12:22:15.854Z,6.07
2022-12-13T12:24:58.092Z,6.35
2022-12-13T12:27:33.490Z,6.00
2022-12-13T12:30:24.493Z,5.63
2022-12-13T12:33:06.394Z,5.43
2022-12-13T12:35:58.617Z,5.60
2022-12-13T12:38:59.315Z,5.47
2022-12-13T12:41:47.120Z,5.60
2022-12-13T12:44:49.210Z,5.22
2022-12-13T12:47:48.004Z,5.85
2022-12-13T12:50:43.019Z,4.45
2022-12-13T12:53:40.422Z,4.88
2022-12-13T12:59:07.956Z,5.00
2022-12-13T13:01:44.433Z,5.90
2022-12-13T13:04:22.582Z,5.32
2022-12-13T13:07:04.241Z,5.45
2022-12-13T13:09:56.142Z,5.25
2022-12-13T13:12:28.976Z,5.97
2022-12-13T13:14:57.779Z,6.00
2022-12-13T13:17:27.049Z,6.00
2022-12-13T13:20:13.679Z,4.82
2022-12-13T13:22:44.129Z,5.90
2022-12-13T13:25:21.241Z,6.35
2022-12-13T13:27:50.989Z,5.57
2022-12-13T13:30:19.796Z,6.00
2022-12-13T13:32:47.502Z,6.38
2022-12-13T13:35:32.618Z,6.07
2022-12-13T13:37:59.447Z,6.30
2022-12-13T13:40:31.617Z,6.35
2022-12-13T13:43:02.034Z,4.95
2022-12-13T13:45:28.916Z,5.72
2022-12-13T13:48:14.472Z,6.45
2022-12-13T13:51:14.500Z,5.72
2022-12-13T13:53:59.291Z,5.82
2022-12-13T13:56:44.035Z,5.70
2022-12-13T13:59:33.882Z,5.78
2022-12-13T14:02:28.985Z,6.80
2022-12-13T14:05:14.238Z,5.55
2022-12-13T14:08:20.155Z,6.55
2022-12-13T14:11:22.321Z,5.57
2022-12-13T14:14:23.106Z,6.35
2022-12-13T14:17:09.010Z,6.15
2022-12-13T14:19:41.685Z,5.90
2022-12-13T14:22:19.137Z,5.82
2022-12-13T14:24:52.655Z,6.25
2022-12-13T14:27:31.416Z,5.60
2022-12-13T14:29:59.671Z,5.65
2022-12-13T14:32:29.226Z,5.28
2022-12-13T14:34:57.891Z,5.57
2022-12-13T14:37:32.817Z,6.32
2022-12-13T14:40:02.094Z,7.38
2022-12-13T14:42:34.356Z,24.15
2022-12-13T14:45:23.301Z,18.00
2022-12-13T14:47:50.398Z,10.07
2022-12-13T14:50:18.212Z,8.02
2022-12-13T14:52:46.962Z,7.18
2022-12-13T14:55:25.119Z,7.88
2022-12-13T14:57:54.729Z,8.13
2022-12-13T15:00:35.774Z,7.10
2022-12-13T15:03:04.648Z,8.35
2022-12-13T15:05:51.068Z,7.68
2022-12-13T15:08:19.692Z,8.02
2022-12-13T15:10:53.855Z,8.32
2022-12-13T15:13:35.582Z,7.47
2022-12-13T15:16:11.494Z,8.50
2022-12-13T15:18:38.886Z,7.43
2022-12-13T15:21:20.632Z,8.10
2022-12-13T15:23:49.827Z,8.43
2022-12-13T15:26:28.553Z,9.40
2022-12-13T15:29:01.064Z,8.50
2022-12-13T15:31:36.171Z,8.70
2022-12-13T15:34:30.305Z,8.98
2022-12-13T15:37:03.317Z,7.95
2022-12-13T15:39:33.542Z,8.02
2022-12-13T15:42:00.272Z,8.40
2022-12-13T15:44:30.772Z,8.30
2022-12-13T15:47:08.710Z,9.02
2022-12-13T15:49:45.563Z,8.52
2022-12-13T15:52:14.926Z,9.98
2022-12-13T15:54:42.634Z,9.50
2022-12-13T15:57:16.327Z,8.48
2022-12-13T15:59:44.337Z,9.80
2022-12-13T16:02:25.140Z,9.90
2022-12-13T16:04:52.215Z,10.05
2022-12-13T16:07:26.322Z,10.23
2022-12-13T16:09:54.736Z,14.57
2022-12-13T16:12:28.660Z,17.25
2022-12-13T16:15:29.160Z,17.30
2022-12-13T16:18:27.550Z,17.80
2022-12-13T16:20:55.086Z,19.95
2022-12-13T16:23:27.496Z,16.58
2022-12-13T16:25:54.773Z,20.75
2022-12-13T16:28:26.216Z,16.00
2022-12-13T16:30:53.091Z,17.90
2022-12-13T16:33:27.592Z,21.85
2022-12-13T16:35:55.921Z,23.80
2022-12-13T16:38:26.795Z,20.98
2022-12-13T16:40:56.495Z,17.70
2022-12-13T16:43:32.795Z,16.50
2022-12-13T16:47:11.547Z,16.23
2022-12-13T16:48:52.242Z,13.48
2022-12-13T16:51:20.987Z,12.65
2022-12-13T16:53:51.227Z,12.57
2022-12-13T16:56:21.906Z,12.60
2022-12-13T16:58:50.645Z,12.43
2022-12-13T17:01:20.950Z,11.80
2022-12-13T17:03:48.308Z,10.95
2022-12-13T17:06:18.911Z,11.38
2022-12-13T17:08:45.519Z,11.50
2022-12-13T17:11:17.824Z,11.48
2022-12-13T17:13:47.096Z,12.95
2022-12-13T17:16:14.333Z,18.33
2022-12-13T17:18:42.491Z,14.52
2022-12-13T17:21:11.712Z,13.57
2022-12-13T17:23:38.382Z,12.65
2022-12-13T17:26:07.300Z,12.40
2022-12-13T17:28:34.391Z,13.35
2022-12-13T17:31:20.719Z,13.02
2022-12-13T17:33:48.200Z,12.68
2022-12-13T17:36:16.033Z,13.82
2022-12-13T17:38:47.143Z,13.40
2022-12-13T17:41:15.605Z,15.07
2022-12-13T17:43:43.376Z,14.38
2022-12-13T17:46:15.544Z,14.57
2022-12-13T17:48:42.890Z,13.52
2022-12-13T17:51:11.111Z,12.95
2022-12-13T17:53:42.991Z,13.73
2022-12-13T17:56:12.371Z,15.23
2022-12-13T17:58:42.566Z,13.70
2022-12-13T18:01:20.790Z,13.63
2022-12-13T18:03:49.056Z,14.88
2022-12-13T18:06:17.234Z,14.15
2022-12-13T18:08:45.287Z,15.07
2022-12-13T18:14:00.722Z,16.42
2022-12-13T18:16:35.722Z,15.32
2022-12-13T18:21:33.177Z,14.48
2022-12-13T18:24:00.026Z,15.38
2022-12-13T18:26:26.833Z,14.80
2022-12-13T18:28:53.485Z,15.02
2022-12-13T18:31:23.553Z,15.32
2022-12-13T18:33:53.342Z,17.30
2022-12-13T18:36:23.202Z,14.27
2022-12-13T18:38:50.422Z,14.45
2022-12-13T18:41:25.177Z,16.00
2022-12-13T18:44:00.493Z,14.82
2022-12-13T18:46:29.483Z,17.05
2022-12-13T18:48:57.033Z,16.70
2022-12-13T18:51:24.463Z,14.30
2022-12-13T18:53:51.720Z,16.02
2022-12-13T18:56:19.578Z,14.98
2022-12-13T18:58:48.872Z,13.55
2022-12-13T19:01:16.811Z,15.18
2022-12-13T19:03:45.279Z,16.60
2022-12-13T19:06:24.134Z,15.30
2022-12-13T19:08:53.950Z,16.95
2022-12-13T19:11:21.116Z,14.18
2022-12-13T19:13:50.791Z,15.60
2022-12-13T19:16:21.645Z,17.73
2022-12-13T19:18:49.536Z,16.92
2022-12-13T19:21:18.796Z,18.88
2022-12-13T19:23:56.537Z,17.35
2022-12-13T19:26:29.014Z,18.33
2022-12-13T19:28:57.607Z,19.70
2022-12-13T19:31:32.228Z,18.92
2022-12-13T19:34:01.637Z,18.60
2022-12-13T19:36:28.845Z,20.77
2022-12-13T19:38:58.376Z,17.85
2022-12-13T19:41:25.877Z,18.00
2022-12-13T19:43:53.951Z,20.17
2022-12-13T19:46:21.330Z,19.40
2022-12-13T19:48:48.286Z,18.90
2022-12-13T19:51:14.877Z,18.38
2022-12-13T19:53:42.262Z,19.30
2022-12-13T19:56:10.989Z,18.10
2022-12-13T19:58:39.213Z,19.98
2022-12-13T20:01:07.859Z,19.42
2022-12-13T20:03:36.713Z,20.63
2022-12-13T20:06:05.117Z,21.50
2022-12-13T20:08:33.066Z,18.55
2022-12-13T20:11:02.947Z,19.38
2022-12-13T20:13:29.990Z,17.33
2022-12-13T20:15:56.843Z,18.77
2022-12-13T20:18:23.564Z,18.23
2022-12-13T20:21:16.844Z,20.65
2022-12-13T20:23:37.790Z,18.10
2022-12-13T20:26:11.232Z,18.63
2022-12-13T20:28:38.489Z,18.17
2022-12-13T20:31:15.775Z,18.52
2022-12-13T20:33:42.792Z,17.98
2022-12-13T20:36:24.001Z,18.33
2022-12-13T20:38:53.167Z,16.35
2022-12-13T20:41:19.775Z,16.15
2022-12-13T20:43:48.467Z,15.52
2022-12-13T20:46:15.656Z,17.30
2022-12-13T20:48:44.915Z,15.02
2022-12-13T20:51:14.906Z,13.82
2022-12-13T20:53:43.766Z,15.85
2022-12-13T20:56:15.499Z,20.00
2022-12-13T20:58:42.770Z,23.90
2022-12-13T21:01:16.605Z,21.15
2022-12-13T21:03:43.575Z,25.90
2022-12-13T21:06:10.667Z,25.52
2022-12-13T21:08:52.945Z,23.58
2022-12-13T21:11:38.670Z,26.40
2022-12-13T21:14:13.468Z,26.80
2022-12-13T21:16:46.252Z,26.98
2022-12-13T21:19:15.656Z,26.80
2022-12-13T21:21:42.823Z,25.85
2022-12-13T21:24:13.290Z,29.17
2022-12-13T21:26:39.890Z,29.85
2022-12-13T21:29:08.111Z,29.10
2022-12-13T21:31:36.095Z,28.35
2022-12-13T21:34:03.960Z,27.50
2022-12-13T21:36:32.752Z,27.77
2022-12-13T21:39:01.876Z,30.17
2022-12-13T21:41:29.205Z,30.23
2022-12-13T21:43:56.266Z,28.83
2022-12-13T21:46:31.329Z,30.58
2022-12-13T21:49:11.769Z,31.88
2022-12-13T21:51:41.117Z,39.22
2022-12-13T21:54:09.895Z,36.65
2022-12-13T21:56:54.993Z,36.05
2022-12-13T21:59:26.620Z,35.78
2022-12-13T22:02:20.214Z,34.33
2022-12-13T22:04:49.444Z,37.20
2022-12-13T22:07:17.388Z,34.53
2022-12-13T22:09:44.377Z,32.50
2022-12-13T22:12:18.313Z,34.38
2022-12-13T22:14:45.952Z,32.95
2022-12-13T22:17:12.824Z,32.15
2022-12-13T22:19:39.749Z,28.67
2022-12-13T22:22:07.013Z,33.83
2022-12-13T22:24:33.641Z,31.73
2022-12-13T22:27:01.681Z,30.88
2022-12-13T22:29:28.410Z,36.45
2022-12-13T22:31:55.131Z,34.60
2022-12-13T22:34:21.913Z,34.45
2022-12-13T22:36:48.503Z,32.58
2022-12-13T22:39:19.733Z,31.90
2022-12-13T22:41:48.659Z,35.35
2022-12-13T22:44:17.347Z,28.95
2022-12-13T22:46:44.487Z,30.40
2022-12-13T22:49:12.178Z,31.08
2022-12-13T22:51:39.227Z,29.58
2022-12-13T22:54:06.714Z,30.77
2022-12-13T22:56:33.421Z,26.98
2022-12-13T22:59:02.187Z,26.95
2022-12-13T23:01:31.731Z,29.23
2022-12-13T23:03:59.716Z,27.35
2022-12-13T23:06:31.420Z,30.92
2022-12-13T23:09:14.905Z,32.88
2022-12-13T23:12:01.150Z,25.73
2022-12-13T23:14:30.703Z,28.20
2022-12-13T23:16:57.713Z,31.38
2022-12-13T23:19:48.865Z,32.97
2022-12-13T23:22:11.455Z,26.15
2022-12-13T23:24:38.065Z,29.33
2022-12-13T23:27:04.649Z,26.42
2022-12-13T23:29:31.427Z,19.50
2022-12-13T23:31:58.110Z,33.03
2022-12-13T23:34:24.783Z,31.00
2022-12-13T23:36:51.385Z,29.83
2022-12-13T23:39:17.950Z,29.08
2022-12-13T23:41:44.527Z,29.33
2022-12-13T23:44:11.155Z,30.42
2022-12-13T23:46:38.175Z,32.53
2022-12-13T23:49:06.636Z,33.90
2022-12-13T23:51:34.892Z,24.45
2022-12-13T23:54:01.737Z,30.60
2022-12-13T23:56:29.414Z,33.33
2022-12-13T23:58:56.008Z,32.38
